Správy METAR z letísk v Slovenskej republike

LZTT - Poprad Tatry, Slovenská republika
Vzdialenosť od tejto stanice: Západne 25km
Aktualizované: 10.12.2018 15:30
 
Teplota vzduchu: 0°C
Chlad vetra: -6°C
Vietor: ZJZ 22 km/h
Rosný bod: -2°C
Vlhkosť vzduchu: 87%
Tlak vzduchu: 1007 hPa
Stav počasia: Miernejší sneh, Prehánky
Oblačnosť: oblačno
Viditeľnosť: 10 km
Detaily oblačnosti: oblačno 701 m
2018/12/10 14:30 LZTT 101430Z 25012KT 9999 -SHSN SCT023 M00/M02 Q1007 RESHSN NOSIG
LZKZ - Košice, Slovenská republika
Vzdialenosť od tejto stanice: VJV 62km
Aktualizované: 10.12.2018 15:30
 
Teplota vzduchu: 3°C
Vietor: premenlivý 4 km/h
Rosný bod: 1°C
Vlhkosť vzduchu: 87%
Tlak vzduchu: 1009 hPa
Stav počasia: Jasno
Oblačnosť: jasná obloha
Viditeľnosť: viac ako 10 km
2018/12/10 14:30 LZKZ 101430Z VRB02KT CAVOK 03/01 Q1009 NOSIG
 
LZSL - Sliač, Slovenská republika
Vzdialenosť od tejto stanice: ZJZ 131km
Aktualizované: 10.12.2018 15:30
 
Teplota vzduchu: 3°C
Vietor: premenlivý 4 km/h
Rosný bod: 0°C
Vlhkosť vzduchu: 81%
Tlak vzduchu: 1010 hPa
Stav počasia: Miernejší dážď, Prehánky
Oblačnosť: skoro zatiahnuto
Viditeľnosť: 10 km
Detaily oblačnosti: skoro jasno 488 m
skoro zatiahnuto 1219 m
2018/12/10 14:30 LZSL 101430Z VRB02KT 9999 -SHRA FEW016 BKN040 03/00 Q1010
LZZI - Žilina, Slovenská republika
Vzdialenosť od tejto stanice: Západne 161km
Aktualizované: 10.12.2018 15:30
 
Teplota vzduchu: 4°C
Chlad vetra: 0°C
Vietor: ZJZ 17 km/h
Rosný bod: 0°C
Vlhkosť vzduchu: 75%
Tlak vzduchu: 1010 hPa
Oblačnosť: skoro zatiahnuto
Viditeľnosť: 10 km
Detaily oblačnosti: oblačno 1036 m
skoro zatiahnuto 1341 m
2018/12/10 14:30 LZZI 101430Z 24009KT 9999 SCT034 BKN044 04/M00 Q1010
 
LZIB - Bratislava, Slovernská republika
Vzdialenosť od tejto stanice: ZJZ 274km
Aktualizované: 10.12.2018 15:33
 
Teplota vzduchu: 6°C
Chlad vetra: 1°C
Vietor: ZSZ 33 km/h
nárazy až 56 km/h
Rosný bod: -1°C
Vlhkosť vzduchu: 61%
Tlak vzduchu: 1013 hPa
Oblačnosť: oblačno
Viditeľnosť: 10 km
Detaily oblačnosti: skoro jasno 1006 m
oblačno 1981 m
2018/12/10 14:33 LZIB 101433Z 29018G30KT 9999 FEW033 SCT065 06/M01 Q1013
LZPP - Piešťany, Slovenská republika
Vzdialenosť od tejto stanice: ZJZ 237km
Aktualizované: 10.12.2018 15:30
 
Teplota vzduchu: 5°C
Chlad vetra: 1°C
Vietor: ZSZ 19 km/h
Rosný bod: 0°C
Vlhkosť vzduchu: 70%
Tlak vzduchu: 1012 hPa
Oblačnosť: oblačno
Viditeľnosť: 10 km
Detaily oblačnosti: oblačno 1372 m
2018/12/10 14:30 LZPP 101430Z 30010KT 9999 SCT045 05/00 Q1012
 
LZNI - Nitra, Slovenská republika
Vzdialenosť od tejto stanice: ZJZ 207km
Aktualizované: 31.12.2012 21:00
Údaje nie sú aktuálne
 
Teplota vzduchu: 1°C
Vietor: premenlivý 0 km/h
Rosný bod: -2°C
Vlhkosť vzduchu: 81%
Tlak vzduchu: 1022 hPa
Stav počasia: Jasno
Oblačnosť: jasná obloha
Viditeľnosť: viac ako 10 km
2012/12/31 20:00 LZNI 312000Z /////KT CAVOK 01/M02 Q1022
LZPE - Prievidza, Slovenská republika
Vzdialenosť od tejto stanice: ZJZ 148km
Aktualizované: 31.12.2012 21:00
Údaje nie sú aktuálne
 
Teplota vzduchu: -3°C
Vietor: premenlivý 0 km/h
Rosný bod: -4°C
Vlhkosť vzduchu: 93%
Tlak vzduchu: 1022 hPa
Stav počasia: Jasno
Oblačnosť: jasná obloha
Viditeľnosť: viac ako 10 km
2012/12/31 20:00 LZPE 312000Z /////KT CAVOK M03/M04 Q1022
 
LZKC - Kamenica nad Cirochou, Slovenská republika
Vzdialenosť od tejto stanice: VJV 90km
Aktualizované: 01.01.2013 13:00
Údaje nie sú aktuálne
 
Teplota vzduchu: 4°C
Chlad vetra: 1°C
Vietor: JJZ 11 km/h
Rosný bod: -7°C
Vlhkosť vzduchu: 45%
Tlak vzduchu: 1019 hPa
Oblačnosť: skoro jasno
Viditeľnosť: 10 km
Detaily oblačnosti: skoro jasno 1615 m
2013/01/01 12:00 LZKC 011200Z 21006KT 150V290 9999 FEW053 04/M07 Q1019
LZLU - Lučenec, Slovenská republika
Vzdialenosť od tejto stanice: ZJZ 123km
Aktualizované: 14.03.2013 12:10
Údaje nie sú aktuálne
 
Teplota vzduchu: 2°C
Chlad vetra: -2°C
Vietor: V 17 km/h
Rosný bod: 1°C
Vlhkosť vzduchu: 93%
Tlak vzduchu: 994 hPa
2013/03/14 11:10 LZLU 141110Z AUTO 08009KT //// ////// 02/01 Q0994

Metar display script od Saratoga-Weather.org
upravil a preložil Miloš Jiřík Konečná úprava a preklad do Slovenčiny Teodor Zibura